Aviation Digital Data Service (ADDS)

Output produced by METARs form (0952 UTC 19 November 2018)
found at http://www.aviationweather.gov/metar/data/
 
KRNH 190852Z 1909/2006 VRB03KT 4SM -SHSN OVC030 
     TEMPO 1909/1912 1 1/2SM -SN BKN015 
     FM191400 36007KT P6SM BKN020 
     FM192100 35009KT P6SM BKN035 
     FM200100 35005KT P6SM SCT040